Time;durP1;ratioP1;P1;durP2;ratioP2;P2;SDS_P1;SDS_P2;PMS_P1;PMS_P2;Temp;Humidity;BMP_temperature;BMP_pressure;BME280_temperature;BME280_humidity;BME280_pressure;Samples;Min_cycle;Max_cycle;Signal;HPM_P1;HPM_P2
2022/02/10 00:13:59;;;;;;;10.68;5.78;;;;;;;;;;5049187;28;20109;-77
2022/02/10 00:35:25;;;;;;;6.70;3.50;;;;;;;;;;5046761;28;20040;-78
2022/02/10 00:37:58;;;;;;;5.70;2.88;;;;;;;;;;5050712;28;20119;-78
2022/02/10 00:40:32;;;;;;;4.78;3.30;;;;;;;;;;5050050;28;20044;-78
2022/02/10 00:43:00;;;;;;;8.40;3.35;;;;;;;;;;5050165;28;20021;-77
2022/02/10 00:45:32;;;;;;;7.95;3.40;;;;;;;;;;5048629;28;20069;-77
2022/02/10 00:48:01;;;;;;;7.60;3.85;;;;;;;;;;5048431;28;20087;-78
2022/02/10 00:50:30;;;;;;;6.72;3.10;;;;;;;;;;5049024;28;20033;-78
2022/02/10 00:53:20;;;;;;;8.07;3.60;;;;;;;;;;5048161;28;20559;-78
2022/02/10 00:55:47;;;;;;;8.02;3.42;;;;;;;;;;5046598;28;20025;-78
2022/02/10 00:58:31;;;;;;;6.82;3.15;;;;;;;;;;5048020;28;20063;-77
2022/02/10 01:12:59;;;;;;;6.65;3.25;;;;;;;;;;5048211;28;20075;-78
2022/02/10 01:30:32;;;;;;;13.13;3.13;;;;;;;;;;5049613;28;20495;-78
2022/02/10 01:33:01;;;;;;;7.15;3.38;;;;;;;;;;5047743;28;20021;-78
2022/02/10 01:35:30;;;;;;;4.68;2.72;;;;;;;;;;5049031;28;20199;-78
2022/02/10 01:38:00;;;;;;;8.32;3.13;;;;;;;;;;5048364;28;20271;-78
2022/02/10 01:40:37;;;;;;;6.82;2.70;;;;;;;;;;5048381;28;20083;-77
2022/02/10 01:57:41;;;;;;;7.22;2.90;;;;;;;;;;5065010;28;20021;-77
2022/02/10 02:05:17;;;;;;;4.88;3.15;;;;;;;;;;5048813;28;20032;-78
2022/02/10 02:07:42;;;;;;;7.43;3.35;;;;;;;;;;5046190;28;20039;-78
2022/02/10 02:10:08;;;;;;;5.97;3.00;;;;;;;;;;5045188;28;20119;-78
2022/02/10 02:12:33;;;;;;;5.10;2.58;;;;;;;;;;5047925;28;20531;-77
2022/02/10 02:14:59;;;;;;;5.45;2.67;;;;;;;;;;5059004;28;20136;-77
2022/02/10 02:17:29;;;;;;;5.32;2.75;;;;;;;;;;5062556;28;20035;-77
2022/02/10 02:19:55;;;;;;;5.43;2.80;;;;;;;;;;5043494;28;20425;-77
2022/02/10 02:22:20;;;;;;;6.60;2.65;;;;;;;;;;5045643;28;20044;-78
2022/02/10 02:24:47;;;;;;;7.22;2.63;;;;;;;;;;5048449;28;20025;-78
2022/02/10 02:27:17;;;;;;;4.00;2.83;;;;;;;;;;5048502;28;20024;-78
2022/02/10 02:29:49;;;;;;;3.13;2.30;;;;;;;;;;5057538;28;20022;-78
2022/02/10 02:32:27;;;;;;;5.72;2.55;;;;;;;;;;5039961;28;20033;-78
2022/02/10 03:04:04;;;;;;;5.35;2.72;;;;;;;;;;5047824;28;20040;-78
2022/02/10 03:07:47;;;;;;;3.75;2.08;;;;;;;;;;5044919;28;20486;-77
2022/02/10 03:12:57;;;;;;;4.88;2.45;;;;;;;;;;5051901;28;20032;-77
2022/02/10 03:15:36;;;;;;;5.85;2.50;;;;;;;;;;5051050;28;20025;-77
2022/02/10 04:23:17;;;;;;;2.50;1.80;;;;;;;;;;5050318;28;20489;-77
2022/02/10 05:04:33;;;;;;;13.60;5.53;;;;;;;;;;5049582;28;20037;-77
2022/02/10 05:33:54;;;;;;;5.53;3.40;;;;;;;;;;5048874;28;20025;-76
2022/02/10 05:36:23;;;;;;;10.88;4.13;;;;;;;;;;5047605;28;20040;-77
2022/02/10 05:39:07;;;;;;;8.57;3.53;;;;;;;;;;5047793;28;20036;-77
2022/02/10 05:46:48;;;;;;;5.80;3.15;;;;;;;;;;5050121;28;20518;-77
2022/02/10 05:57:38;;;;;;;8.32;2.88;;;;;;;;;;5045768;28;20072;-78
2022/02/10 06:49:34;;;;;;;7.00;3.50;;;;;;;;;;5055575;28;20487;-76
2022/02/10 06:51:59;;;;;;;;;;;;;;;;;;;;;
2022/02/10 06:57:23;;;;;;;7.88;3.50;;;;;;;;;;5053738;28;20104;-77
2022/02/10 07:46:55;;;;;;;12.60;4.50;;;;;;;;;;5049796;28;20123;-76
2022/02/10 08:00:07;;;;;;;11.13;5.43;;;;;;;;;;5054772;28;20063;-77
2022/02/10 08:26:06;;;;;;;10.77;5.95;;;;;;;;;;5047481;28;20117;-76
2022/02/10 08:56:11;;;;;;;12.82;5.60;;;;;;;;;;5058268;28;20021;-76
2022/02/10 09:53:00;;;;;;;15.07;5.43;;;;;;;;;;5050068;28;20058;-75
2022/02/10 10:03:14;;;;;;;14.70;5.90;;;;;;;;;;5043478;28;20025;-77
2022/02/10 10:06:15;;;;;;;12.52;5.47;;;;;;;;;;5044391;28;20025;-77
2022/02/10 10:09:12;;;;;;;10.77;5.03;;;;;;;;;;5061269;28;20037;-78
2022/02/10 10:14:21;;;;;;;15.02;6.18;;;;;;;;;;5059330;28;20162;-75
2022/02/10 10:17:06;;;;;;;17.00;6.78;;;;;;;;;;5050411;28;20021;-77
2022/02/10 10:20:01;;;;;;;13.55;6.20;;;;;;;;;;5040042;28;20044;-77
2022/02/10 10:50:29;;;;;;;15.25;6.50;;;;;;;;;;5045520;28;20025;-76
2022/02/10 10:55:48;;;;;;;15.00;5.55;;;;;;;;;;5044211;28;19932;-75
2022/02/10 10:58:28;;;;;;;9.55;5.90;;;;;;;;;;5046633;28;20032;-79
2022/02/10 11:36:26;;;;;;;;;;;;;;;;;;;;;
2022/02/10 11:39:17;;;;;;;12.77;6.63;;;;;;;;;;5050969;28;20028;-76
2022/02/10 11:42:34;;;;;;;;;;;;;;;;;;;;;
2022/02/10 14:09:24;;;;;;;13.60;6.65;;;;;;;;;;5044683;28;20492;-77
2022/02/10 14:14:26;;;;;;;13.95;6.57;;;;;;;;;;5050668;28;20021;-76
2022/02/10 14:19:29;;;;;;;15.63;6.13;;;;;;;;;;5046603;28;20080;-77
2022/02/10 14:27:20;;;;;;;16.30;6.82;;;;;;;;;;5048468;28;20113;-78
2022/02/10 14:29:46;;;;;;;11.70;6.55;;;;;;;;;;5067252;28;20035;-78
2022/02/10 14:32:17;;;;;;;17.48;7.00;;;;;;;;;;5047724;28;20029;-77
2022/02/10 14:34:45;;;;;;;14.23;6.65;;;;;;;;;;5055959;28;20492;-76
2022/02/10 15:50:39;;;;;;;22.30;9.45;;;;;;;;;;5051768;28;20052;-78
2022/02/10 16:17:55;;;;;;;11.38;7.32;;;;;;;;;;5037794;28;20046;-79
2022/02/10 16:20:29;;;;;;;15.75;8.38;;;;;;;;;;5039173;28;20025;-80
2022/02/10 16:23:02;;;;;;;15.85;7.13;;;;;;;;;;5059121;28;20048;-78
2022/02/10 16:25:37;;;;;;;22.48;6.88;;;;;;;;;;5052822;28;20029;-80
2022/02/10 16:28:22;;;;;;;25.45;6.40;;;;;;;;;;5055769;28;20024;-79
2022/02/10 16:30:51;;;;;;;16.95;7.20;;;;;;;;;;5056419;28;20103;-79
2022/02/10 16:33:17;;;;;;;18.52;7.30;;;;;;;;;;5058448;28;20112;-79
2022/02/10 16:35:45;;;;;;;18.27;6.35;;;;;;;;;;5050756;28;20111;-80
2022/02/10 16:38:13;;;;;;;13.52;7.40;;;;;;;;;;5053191;28;20058;-80
2022/02/10 16:40:42;;;;;;;17.45;6.53;;;;;;;;;;5051347;28;20597;-78
2022/02/10 16:43:08;;;;;;;10.05;5.80;;;;;;;;;;5052657;28;20033;-80
2022/02/10 16:45:34;;;;;;;11.57;5.78;;;;;;;;;;5052102;28;20047;-80
2022/02/10 16:48:00;;;;;;;10.15;5.25;;;;;;;;;;5057180;28;20074;-79
2022/02/10 16:50:26;;;;;;;12.02;5.45;;;;;;;;;;5051544;28;20461;-78
2022/02/10 16:53:04;;;;;;;13.32;5.32;;;;;;;;;;5053939;28;20060;-78
2022/02/10 16:58:10;;;;;;;9.02;5.40;;;;;;;;;;5051853;28;20021;-78
2022/02/10 17:03:39;;;;;;;10.05;5.72;;;;;;;;;;5049811;28;20035;-79
2022/02/10 17:27:27;;;;;;;10.48;6.28;;;;;;;;;;5050949;28;20033;-79
2022/02/10 17:33:06;;;;;;;8.68;5.47;;;;;;;;;;5053418;28;20036;-78
2022/02/10 17:54:02;;;;;;;12.07;5.40;;;;;;;;;;5053822;28;20078;-79
2022/02/10 17:56:29;;;;;;;12.80;5.80;;;;;;;;;;5048229;28;20064;-80
2022/02/10 17:58:55;;;;;;;16.42;6.32;;;;;;;;;;5054930;28;20035;-80
2022/02/10 18:01:21;;;;;;;12.77;6.45;;;;;;;;;;5056236;28;20017;-80
2022/02/10 18:03:47;;;;;;;15.02;6.72;;;;;;;;;;5055128;28;20040;-80
2022/02/10 18:08:56;;;;;;;13.80;6.85;;;;;;;;;;5065563;28;20035;-78
2022/02/10 18:16:43;;;;;;;12.48;5.85;;;;;;;;;;5053392;28;20053;-77
2022/02/10 18:19:21;;;;;;;11.65;6.03;;;;;;;;;;5049321;28;20107;-76
2022/02/10 19:10:19;;;;;;;11.45;6.22;;;;;;;;;;5049194;28;20039;-77
2022/02/10 19:12:52;;;;;;;;;;;;;;;;;;5063578;28;20033;-77
2022/02/10 19:15:23;;;;;;;10.13;5.15;;;;;;;;;;5046451;28;19944;-77
2022/02/10 19:17:53;;;;;;;15.30;6.10;;;;;;;;;;5050024;28;20040;-77
2022/02/10 19:20:21;;;;;;;12.38;5.53;;;;;;;;;;5050709;28;20029;-77
2022/02/10 19:22:48;;;;;;;20.20;8.13;;;;;;;;;;5052323;28;20119;-77
2022/02/10 19:25:14;;;;;;;11.27;5.88;;;;;;;;;;5054999;28;20029;-78
2022/02/10 19:27:41;;;;;;;10.20;4.82;;;;;;;;;;5051499;28;20071;-77
2022/02/10 19:30:14;;;;;;;11.77;5.38;;;;;;;;;;5052322;28;20036;-77
2022/02/10 19:32:49;;;;;;;20.08;9.80;;;;;;;;;;5044732;28;20059;-78
2022/02/10 19:35:17;;;;;;;10.70;5.40;;;;;;;;;;5049632;28;20025;-77
2022/02/10 19:37:44;;;;;;;10.27;5.18;;;;;;;;;;5065645;28;20028;-77
2022/02/10 19:40:11;;;;;;;7.00;4.30;;;;;;;;;;5049172;28;20085;-77
2022/02/10 19:42:39;;;;;;;12.27;5.05;;;;;;;;;;5050279;28;20094;-77
2022/02/10 19:45:06;;;;;;;12.70;4.78;;;;;;;;;;5066468;28;20170;-77
2022/02/10 19:47:34;;;;;;;8.48;4.85;;;;;;;;;;5050917;28;20032;-77
2022/02/10 19:50:08;;;;;;;11.40;5.35;;;;;;;;;;5050758;28;20036;-78
2022/02/10 19:52:37;;;;;;;13.45;5.82;;;;;;;;;;5052807;28;20096;-78
2022/02/10 19:55:06;;;;;;;10.10;4.88;;;;;;;;;;5054454;28;20082;-77
2022/02/10 19:57:35;;;;;;;9.52;5.40;;;;;;;;;;5053222;28;20040;-78
2022/02/10 20:00:07;;;;;;;9.60;5.45;;;;;;;;;;5052981;28;20437;-78
2022/02/10 20:02:35;;;;;;;7.72;4.40;;;;;;;;;;5052684;28;20140;-78
2022/02/10 20:05:03;;;;;;;11.15;4.50;;;;;;;;;;5053590;28;20039;-78
2022/02/10 20:07:37;;;;;;;10.02;6.47;;;;;;;;;;5047060;28;20025;-77
2022/02/10 20:10:03;;;;;;;10.35;5.78;;;;;;;;;;5069795;28;20028;-76
2022/02/10 20:12:31;;;;;;;9.32;4.90;;;;;;;;;;5048373;28;20032;-77
2022/02/10 20:14:56;;;;;;;12.13;5.78;;;;;;;;;;5064477;28;20074;-77
2022/02/10 20:17:22;;;;;;;10.25;4.70;;;;;;;;;;5055912;28;20025;-78
2022/02/10 20:19:47;;;;;;;9.93;4.85;;;;;;;;;;5054790;28;20389;-77
2022/02/10 20:22:14;;;;;;;11.75;5.35;;;;;;;;;;5052381;28;20020;-77
2022/02/10 20:24:39;;;;;;;11.45;6.25;;;;;;;;;;5047141;28;20021;-77
2022/02/10 20:27:07;;;;;;;11.77;5.97;;;;;;;;;;5048232;28;20371;-76
2022/02/10 20:29:33;;;;;;;12.05;6.00;;;;;;;;;;5049257;28;20064;-78
2022/02/10 20:32:02;;;;;;;9.73;5.25;;;;;;;;;;5049612;28;20664;-77
2022/02/10 20:34:32;;;;;;;8.63;5.10;;;;;;;;;;5049870;28;20068;-77
2022/02/10 20:36:58;;;;;;;;;;;;;;;;;;5048759;28;20409;-77
2022/02/10 20:39:28;;;;;;;13.23;6.07;;;;;;;;;;5048026;28;19913;-77
2022/02/10 20:42:02;;;;;;;12.93;6.38;;;;;;;;;;5048418;28;20488;-79
2022/02/10 20:44:28;;;;;;;11.80;5.97;;;;;;;;;;5049413;28;20032;-77
2022/02/10 20:46:54;;;;;;;12.68;6.00;;;;;;;;;;5046561;28;20032;-77
2022/02/10 20:49:22;;;;;;;13.35;6.22;;;;;;;;;;5049296;28;20634;-77
2022/02/10 20:51:51;;;;;;;13.45;6.43;;;;;;;;;;5047518;28;20240;-77
2022/02/10 20:54:17;;;;;;;16.23;7.65;;;;;;;;;;5050898;28;20035;-78
2022/02/10 20:56:43;;;;;;;12.43;6.68;;;;;;;;;;5047085;28;20100;-77
2022/02/10 20:59:27;;;;;;;12.50;6.32;;;;;;;;;;5057379;28;20056;-78
2022/02/10 21:02:05;;;;;;;16.02;5.80;;;;;;;;;;5052021;28;20119;-78
2022/02/10 21:04:33;;;;;;;11.90;5.18;;;;;;;;;;5052191;28;20406;-77
2022/02/10 21:07:07;;;;;;;10.77;5.45;;;;;;;;;;5051794;28;20095;-77
2022/02/10 21:09:51;;;;;;;11.52;5.50;;;;;;;;;;5049730;28;20431;-77
2022/02/10 21:12:16;;;;;;;14.45;6.18;;;;;;;;;;5050927;28;20489;-76
2022/02/10 21:14:43;;;;;;;19.88;7.57;;;;;;;;;;5052336;28;20040;-78
2022/02/10 21:17:14;;;;;;;17.58;8.23;;;;;;;;;;5048807;28;20252;-78
2022/02/10 21:19:41;;;;;;;23.10;9.65;;;;;;;;;;5052708;28;20055;-77
2022/02/10 21:22:11;;;;;;;17.88;8.18;;;;;;;;;;5054456;28;20035;-79
2022/02/10 21:24:49;;;;;;;16.13;7.78;;;;;;;;;;5047768;28;20108;-78
2022/02/10 21:29:56;;;;;;;13.43;6.70;;;;;;;;;;5046504;28;20056;-79
2022/02/10 21:32:22;;;;;;;18.77;9.30;;;;;;;;;;5039073;28;20097;-78
2022/02/10 21:35:05;;;;;;;10.25;5.95;;;;;;;;;;5036343;28;20603;-78
2022/02/10 21:37:31;;;;;;;10.07;5.53;;;;;;;;;;5044803;28;20056;-78
2022/02/10 22:09:39;;;;;;;23.27;9.25;;;;;;;;;;5057859;28;20039;-78
2022/02/10 22:20:31;;;;;;;10.73;4.95;;;;;;;;;;5048928;28;20484;-79
2022/02/10 22:23:14;;;;;;;11.45;5.43;;;;;;;;;;5048914;28;20112;-78
2022/02/10 22:25:40;;;;;;;8.80;4.80;;;;;;;;;;5048594;28;20020;-78
2022/02/10 22:28:21;;;;;;;12.27;5.10;;;;;;;;;;5046982;28;20086;-77
2022/02/10 22:30:53;;;;;;;26.67;9.27;;;;;;;;;;5047901;28;20027;-77
2022/02/10 22:33:43;;;;;;;18.05;7.68;;;;;;;;;;5048485;28;20485;-79
2022/02/10 22:36:11;;;;;;;27.80;10.30;;;;;;;;;;5049125;28;20083;-79
2022/02/10 22:38:38;;;;;;;27.83;8.75;;;;;;;;;;5043654;28;20025;-77
2022/02/10 22:41:10;;;;;;;18.45;7.45;;;;;;;;;;5047134;28;20344;-78
2022/02/10 22:43:41;;;;;;;14.23;6.25;;;;;;;;;;5048600;28;20462;-78
2022/02/10 22:46:08;;;;;;;19.63;7.68;;;;;;;;;;5052133;28;20036;-79
2022/02/10 22:48:34;;;;;;;17.75;7.30;;;;;;;;;;5043768;28;20492;-77
2022/02/10 22:51:02;;;;;;;16.33;6.30;;;;;;;;;;5046605;28;20053;-79
2022/02/10 22:53:28;;;;;;;14.50;6.00;;;;;;;;;;5050207;28;20025;-78
2022/02/10 22:55:57;;;;;;;15.43;6.82;;;;;;;;;;5047142;28;20025;-79
2022/02/10 22:58:22;;;;;;;15.18;6.05;;;;;;;;;;5041312;28;20070;-79
2022/02/10 23:00:51;;;;;;;12.27;5.57;;;;;;;;;;5044247;28;20112;-79
2022/02/10 23:03:21;;;;;;;12.45;5.80;;;;;;;;;;5063630;28;20029;-78
2022/02/10 23:05:48;;;;;;;12.27;6.35;;;;;;;;;;5060765;28;20108;-78
2022/02/10 23:08:14;;;;;;;12.82;6.80;;;;;;;;;;5045744;28;20120;-78
2022/02/10 23:10:48;;;;;;;16.27;6.82;;;;;;;;;;5047908;28;20029;-78
2022/02/10 23:13:18;;;;;;;10.88;6.30;;;;;;;;;;5046177;28;20017;-78
2022/02/10 23:15:44;;;;;;;9.80;5.63;;;;;;;;;;5047723;28;20021;-78
2022/02/10 23:18:12;;;;;;;11.60;6.38;;;;;;;;;;5045597;28;20028;-77
2022/02/10 23:20:41;;;;;;;14.52;6.43;;;;;;;;;;5044982;28;20079;-77
2022/02/10 23:23:09;;;;;;;12.13;6.03;;;;;;;;;;5046472;28;20028;-78
2022/02/10 23:25:38;;;;;;;13.18;5.63;;;;;;;;;;5049668;28;20052;-78
2022/02/10 23:28:28;;;;;;;9.95;5.95;;;;;;;;;;5050619;28;20083;-78
2022/02/10 23:30:53;;;;;;;12.60;5.93;;;;;;;;;;5051939;28;20661;-78
2022/02/10 23:33:29;;;;;;;14.13;6.47;;;;;;;;;;5048533;28;20049;-78
2022/02/10 23:38:48;;;;;;;16.52;6.82;;;;;;;;;;5053454;28;20531;-77
2022/02/10 23:43:46;;;;;;;21.95;10.23;;;;;;;;;;5049287;28;20048;-77
2022/02/10 23:46:12;;;;;;;20.87;10.43;;;;;;;;;;5050605;28;20051;-79
2022/02/10 23:48:37;;;;;;;18.60;9.40;;;;;;;;;;5048920;28;20481;-77
2022/02/10 23:51:06;;;;;;;24.70;11.23;;;;;;;;;;5048052;28;20021;-78
2022/02/10 23:53:32;;;;;;;27.08;12.02;;;;;;;;;;5051218;28;20087;-79
2022/02/10 23:56:00;;;;;;;21.42;10.50;;;;;;;;;;5048499;28;20453;-79
2022/02/10 23:58:50;;;;;;;21.23;10.57;;;;;;;;;;5051588;28;20048;-78
